ADDS METAR Data INFO
IDs: Format: Raw Decoded Include TAF

Data at: 1624 UTC 25 Apr 2018

KCOD 251556Z AUTO VRB03KT 10SM CLR 12/M08 A3018 RMK AO2 SLP221 T01221078
KCOD 251456Z AUTO 32004KT 10SM CLR 07/M06 A3021 RMK AO2 SLP240 T00721061 58009
KCOD 251356Z AUTO 29003KT 10SM CLR 06/M07 A3022 RMK AO2 SLP242 T00561072
KCOD 251256Z AUTO 24008KT 10SM CLR 04/M08 A3023 RMK AO2 SLP242 T00391083
KCOD 251156Z AUTO 21007KT 180V290 10SM CLR 04/M09 A3024 RMK AO2 SLP245 T00391089 10039 21011 58014
KCOD 251056Z AUTO 23004KT 10SM CLR 03/M07 A3027 RMK AO2 SLP257 T00281072
KCOD 250956Z AUTO 24004KT 10SM CLR 02/M07 A3029 RMK AO2 SLP266 T00221067 FZRANO
KCOD 250856Z AUTO 23006KT 10SM CLR 02/M06 A3028 RMK AO2 SLP268 T00221061 58015 FZRANO
KCOD 250756Z AUTO 21010KT 10SM CLR 02/M06 A3031 RMK AO2 SLP276 T00221056 FZRANO
KCOD 250656Z AUTO 17007KT 10SM CLR 03/M06 A3032 RMK AO2 SLP284 T00281056 401061022
KCOD 250556Z AUTO 17007KT 10SM CLR 02/M05 A3033 RMK AO2 SLP292 T00171050 10106 20017 58012 FZRANO
KCOD 250456Z AUTO 16009KT 10SM CLR 03/M04 A3035 RMK AO2 SLP298 T00281044
KCOD 250356Z AUTO 15008KT 10SM CLR 03/M05 A3037 RMK AO2 SLP303 T00331050
KCOD 250256Z AUTO 15006KT 10SM CLR 04/M05 A3038 RMK AO2 SLP306 T00391050 55007
KCOD 250156Z AUTO 12008KT 10SM CLR 08/M06 A3037 RMK AO2 SLP297 T00781061
KCOD 250056Z AUTO 12005KT 10SM CLR 10/M08 A3039 RMK AO2 SLP307 T01001083
KCOD 242356Z AUTO 13008KT 10SM CLR 11/M07 A3040 RMK AO2 SLP311 T01061067 10106 20050 56012
KCOD 242256Z AUTO VRB04KT 10SM CLR 11/M07 A3041 RMK AO2 SLP316 T01061072
KCOD 242156Z AUTO VRB06KT 10SM CLR 09/M07 A3042 RMK AO2 SLP323 T00941072
KCOD 242056Z AUTO VRB04KT 10SM CLR 09/M07 A3044 RMK AO2 SLP329 T00891072 56020
KCOD 241956Z AUTO 02006KT 10SM CLR 09/M06 A3045 RMK AO2 SLP331 T00891061
KCOD 241856Z AUTO 08006KT 10SM CLR 07/M06 A3048 RMK AO2 SLP344 T00721061
KCOD 241756Z AUTO VRB03KT 10SM OVC045 06/M06 A3051 RMK AO2 SLP355 T00611056 10061 21011 50000
KCOD 241656Z AUTO 01005KT 10SM OVC043 05/M06 A3051 RMK AO2 SLP359 T00501061
KCOD 241556Z AUTO 07006KT 10SM FEW042 05/M05 A3051 RMK AO2 SLP358 T00501050
KCOD 241456Z AUTO 03005KT 10SM CLR 04/M05 A3051 RMK AO2 SLP357 T00391050 50006
KCOD 241356Z AUTO 33003KT 10SM FEW048 04/M05 A3051 RMK AO2 SLP358 T00391050
KCOD 241256Z AUTO 00000KT 10SM BKN060 M01/M04 A3050 RMK AO2 SLP361 T10061044 FZRANO
KCOD 241156Z AUTO 06003KT 10SM OVC060 M01/M05 A3048 RMK AO2 SLP358 60000 70001 T10111050 10006 21022 53004 FZRANO
KCOD 241056Z AUTO 29003KT 10SM FEW055 M02/M05 A3047 RMK AO2 SLP355 T10221050 FZRANO
KCOD 240956Z AUTO 29004KT 10SM CLR M02/M04 A3047 RMK AO2 SLP353 T10171044 FZRANO
KCOD 240856Z AUTO 31003KT 10SM CLR M01/M04 A3047 RMK AO2 SLP353 60000 T10111044 50001 FZRANO
KCOD 240756Z AUTO 30004KT 10SM CLR M01/M03 A3047 RMK AO2 RAE0657 SLP352 T10061028 FZRANO
KCOD 240742Z AUTO 34005KT 10SM FEW018 SCT050 00/M02 A3047 RMK AO2 RAE0657 FZRANO
KCOD 240656Z AUTO VRB05KT 10SM -RA BKN016 BKN022 OVC032 00/M01 A3047 RMK AO2 RAB51SNE51 SLP352 P0000 T00001011 400940000 FZRANO
KCOD 240627Z AUTO 03006KT 8SM -SN OVC014 00/M01 A3047 RMK AO2 P0000 FZRANO
KCOD 240556Z AUTO 03005KT 8SM -SN SCT010 OVC016 01/M02 A3046 RMK AO2 SLP349 P0000 60000 T00061017 10028 20000 51004 FZRANO
KCOD 240456Z AUTO 36009KT 9SM -SN OVC013 01/M02 A3046 RMK AO2 UPB08E24B44E45RAB33E44SNE08B24E33B45 SLP347 P0000 T00061022 FZRANO
KCOD 240447Z AUTO 36011KT 10SM -SN OVC013 01/M02 A3046 RMK AO2 UPB08E24B44E45RAB33E44SNE08B24E33B45 P0000 FZRANO